Terminal Aerodrome Forecast
Issued by NWS

Home | Current Version | Previous Version | Text Only | Print | Product List | Glossary On
Versions: 1 2 3 4 5 6 7 8 9 10 11 12 13 14 15 16
000
FTAK31 PANC 160522
TAFAHO
TAF
PAHO 160522Z 1606/1706 03005KT P6SM SCT100 BKN200
     FM160900 05008KT P6SM VCSH SCT040 OVC060
     FM161200 06011KT 5SM -RA BR OVC020
     FM161800 06015KT P6SM -SHRA SCT025 OVC040=

USA.gov is the U.S. government's official web portal to all federal, state and local government web resources and services.